createdAt,value
2019-05-11T00:00:37.301Z,10.42
2019-05-11T00:03:08.262Z,10.39
2019-05-11T00:05:39.250Z,10.30
2019-05-11T00:08:10.420Z,10.23
2019-05-11T00:10:41.417Z,10.16
2019-05-11T00:13:12.361Z,10.18
2019-05-11T00:15:43.411Z,10.30
2019-05-11T00:18:14.473Z,10.35
2019-05-11T00:20:45.451Z,10.38
2019-05-11T00:23:16.664Z,10.31
2019-05-11T00:25:47.623Z,10.27
2019-05-11T00:28:18.460Z,10.29
2019-05-11T00:30:49.521Z,10.35
2019-05-11T00:33:20.550Z,10.41
2019-05-11T00:35:51.473Z,10.45
2019-05-11T00:38:22.520Z,10.49
2019-05-11T00:40:53.406Z,10.54
2019-05-11T00:43:24.462Z,10.59
2019-05-11T00:45:55.428Z,10.63
2019-05-11T00:48:26.796Z,10.67
2019-05-11T00:51:00.596Z,10.68
2019-05-11T00:53:31.759Z,10.67
2019-05-11T00:56:02.698Z,10.65
2019-05-11T00:58:33.692Z,10.64
2019-05-11T01:01:04.847Z,10.62
2019-05-11T01:03:35.741Z,10.65
2019-05-11T01:06:06.759Z,10.69
2019-05-11T01:08:37.878Z,10.71
2019-05-11T01:11:09.050Z,10.67
2019-05-11T01:13:40.036Z,10.70
2019-05-11T01:16:11.081Z,10.71
2019-05-11T01:18:42.121Z,10.70
2019-05-11T01:21:13.091Z,10.72
2019-05-11T01:23:44.113Z,10.73
2019-05-11T01:26:15.103Z,10.57
2019-05-11T01:28:46.118Z,10.45
2019-05-11T01:31:17.106Z,10.31
2019-05-11T01:33:48.106Z,10.35
2019-05-11T01:36:19.255Z,10.31
2019-05-11T01:38:50.446Z,10.29
2019-05-11T01:41:21.434Z,10.31
2019-05-11T01:43:52.342Z,10.38
2019-05-11T01:46:23.380Z,10.41
2019-05-11T01:48:54.346Z,10.45
2019-05-11T01:51:25.370Z,10.50
2019-05-11T01:53:56.398Z,10.51
2019-05-11T01:56:27.393Z,10.53
2019-05-11T01:58:58.418Z,10.50
2019-05-11T02:01:29.885Z,10.47
2019-05-11T02:04:01.383Z,10.45
2019-05-11T02:06:32.858Z,10.48
2019-05-11T02:09:07.910Z,10.49
2019-05-11T02:11:38.893Z,10.47
2019-05-11T02:14:10.281Z,10.50
2019-05-11T02:16:41.213Z,10.49
2019-05-11T02:19:12.236Z,10.51
2019-05-11T02:21:43.191Z,10.50
2019-05-11T02:24:14.422Z,10.49
2019-05-11T02:26:45.460Z,10.50
2019-05-11T02:29:16.490Z,10.53
2019-05-11T02:31:47.512Z,10.56
2019-05-11T02:34:18.469Z,10.57
2019-05-11T02:36:49.488Z,10.51
2019-05-11T02:39:20.463Z,10.41
2019-05-11T02:41:51.619Z,10.28
2019-05-11T02:44:22.625Z,10.31
2019-05-11T02:46:53.704Z,10.30
2019-05-11T02:49:27.876Z,10.32
2019-05-11T02:51:57.423Z,10.35
2019-05-11T02:54:28.739Z,10.40
2019-05-11T02:56:59.812Z,10.45
2019-05-11T02:59:30.841Z,10.45
2019-05-11T03:02:04.405Z,10.48
2019-05-11T03:04:35.580Z,10.53
2019-05-11T03:07:06.514Z,10.55
2019-05-11T03:09:37.588Z,10.56
2019-05-11T03:12:08.713Z,10.59
2019-05-11T03:14:39.619Z,10.60
2019-05-11T03:17:23.687Z,10.60
2019-05-11T03:19:54.580Z,10.59
2019-05-11T03:22:25.518Z,10.46
2019-05-11T03:24:56.687Z,10.40
2019-05-11T03:27:28.291Z,10.45
2019-05-11T03:30:01.158Z,10.44
2019-05-11T03:32:32.057Z,10.47
2019-05-11T03:35:03.410Z,10.46
2019-05-11T03:37:34.699Z,10.49
2019-05-11T03:40:08.627Z,10.39
2019-05-11T03:42:39.712Z,10.43
2019-05-11T03:45:10.798Z,10.48
2019-05-11T03:47:41.891Z,10.51
2019-05-11T03:50:12.955Z,10.49
2019-05-11T03:52:43.938Z,10.49
2019-05-11T03:55:15.050Z,10.46
2019-05-11T03:57:46.031Z,10.47
2019-05-11T04:00:16.942Z,10.40
2019-05-11T04:02:47.839Z,10.35
2019-05-11T04:05:19.370Z,10.37
2019-05-11T04:07:50.429Z,10.33
2019-05-11T04:10:25.116Z,10.36
2019-05-11T04:12:54.443Z,10.40
2019-05-11T04:15:25.417Z,10.41
2019-05-11T04:17:56.449Z,10.45
2019-05-11T04:20:27.354Z,10.38
2019-05-11T04:22:58.304Z,10.46
2019-05-11T04:25:29.340Z,10.45
2019-05-11T04:28:00.379Z,10.51
2019-05-11T04:30:31.323Z,10.52
2019-05-11T04:33:02.259Z,10.54
2019-05-11T04:35:33.268Z,10.59
2019-05-11T04:38:04.126Z,10.62
2019-05-11T04:40:35.010Z,10.62
2019-05-11T04:43:09.034Z,10.64
2019-05-11T04:45:42.064Z,10.61
2019-05-11T04:48:13.132Z,10.61
2019-05-11T04:50:44.073Z,10.58
2019-05-11T04:53:15.033Z,10.56
2019-05-11T04:55:45.954Z,10.54
2019-05-11T04:58:17.029Z,10.54
2019-05-11T05:03:16.578Z,10.57
2019-05-11T05:05:47.626Z,10.60
2019-05-11T05:08:21.213Z,10.59
2019-05-11T05:13:31.548Z,10.60
2019-05-11T05:16:02.590Z,10.60
2019-05-11T05:21:02.638Z,10.53
2019-05-11T05:23:33.676Z,10.51
2019-05-11T05:26:04.620Z,10.51
2019-05-11T05:28:36.437Z,10.52
2019-05-11T05:31:10.839Z,10.53
2019-05-11T05:33:41.799Z,10.49
2019-05-11T05:36:12.853Z,10.43
2019-05-11T05:38:43.905Z,10.43
2019-05-11T05:41:14.896Z,10.46
2019-05-11T05:43:45.904Z,10.54
2019-05-11T05:46:16.953Z,10.56
2019-05-11T05:48:48.010Z,10.61
2019-05-11T05:51:19.102Z,10.60
2019-05-11T05:56:20.105Z,10.66
2019-05-11T05:59:11.057Z,10.68
2019-05-11T06:01:36.520Z,10.65
2019-05-11T06:04:07.637Z,10.66
2019-05-11T06:06:42.122Z,10.68
2019-05-11T06:09:14.841Z,10.68
2019-05-11T06:11:45.828Z,10.68
2019-05-11T06:15:06.071Z,10.79
2019-05-11T06:19:25.628Z,10.84
2019-05-11T06:21:49.520Z,10.58
2019-05-11T06:39:13.227Z,10.81
2019-05-11T06:45:43.817Z,10.97
2019-05-11T06:51:00.375Z,11.09
2019-05-11T07:17:13.336Z,11.12
2019-05-11T07:20:30.565Z,11.19
2019-05-11T07:34:51.344Z,11.52
2019-05-11T07:41:10.285Z,11.69
2019-05-11T07:44:38.574Z,11.76
2019-05-11T07:47:44.223Z,11.82
2019-05-11T07:56:44.966Z,11.79
2019-05-11T08:04:51.078Z,11.85
2019-05-11T08:08:04.712Z,11.90
2019-05-11T08:13:18.923Z,11.92
2019-05-11T08:18:22.932Z,11.92
2019-05-11T08:25:57.908Z,12.02
2019-05-11T08:31:23.264Z,12.27
2019-05-11T08:36:31.348Z,12.22
2019-05-11T08:39:25.794Z,12.33
2019-05-11T08:45:50.925Z,12.39
2019-05-11T08:48:03.715Z,12.47
2019-05-11T08:55:48.560Z,12.67
2019-05-11T09:01:19.432Z,12.65
2019-05-11T09:15:32.403Z,12.95
2019-05-11T09:25:18.182Z,12.82
2019-05-11T09:40:12.406Z,13.19
2019-05-11T09:44:02.500Z,13.36
2019-05-11T10:10:20.746Z,13.08
2019-05-11T10:15:33.969Z,13.17
2019-05-11T10:18:18.544Z,13.33
2019-05-11T10:24:30.006Z,13.45
2019-05-11T10:30:45.444Z,13.45
2019-05-11T10:51:58.782Z,13.52
2019-05-11T11:31:58.622Z,14.03
2019-05-11T11:37:05.385Z,13.92
2019-05-11T11:46:22.552Z,13.81
2019-05-11T12:18:23.202Z,14.22
2019-05-11T13:23:54.610Z,14.59
2019-05-11T13:30:03.760Z,14.48
2019-05-11T13:33:23.820Z,14.53
2019-05-11T13:35:54.548Z,14.45
2019-05-11T13:38:28.545Z,14.68
2019-05-11T13:41:01.933Z,14.72
2019-05-11T13:48:53.787Z,14.38
2019-05-11T13:51:28.544Z,14.33
2019-05-11T13:54:09.165Z,14.40
2019-05-11T13:57:00.157Z,14.56
2019-05-11T13:59:38.405Z,14.65
2019-05-11T14:05:08.730Z,14.73
2019-05-11T14:10:09.572Z,14.86
2019-05-11T14:20:38.575Z,15.03
2019-05-11T14:23:51.255Z,15.30
2019-05-11T14:26:44.832Z,15.50
2019-05-11T14:29:20.234Z,15.39
2019-05-11T14:36:49.544Z,15.18
2019-05-11T14:39:20.753Z,14.94
2019-05-11T14:44:22.840Z,15.23
2019-05-11T14:49:27.617Z,15.04
2019-05-11T14:54:29.091Z,15.35
2019-05-11T14:57:08.097Z,15.41
2019-05-11T14:59:39.854Z,15.64
2019-05-11T15:02:28.744Z,15.63
2019-05-11T15:08:03.614Z,15.58
2019-05-11T15:13:11.439Z,15.20
2019-05-11T15:18:34.961Z,15.54
2019-05-11T15:23:29.216Z,15.64
2019-05-11T15:36:19.562Z,15.77
2019-05-11T15:38:58.267Z,15.81
2019-05-11T15:44:12.237Z,15.99
2019-05-11T15:54:43.036Z,16.26
2019-05-11T15:57:30.682Z,16.21
2019-05-11T16:07:08.243Z,16.33
2019-05-11T16:20:41.738Z,16.11
2019-05-11T16:36:28.700Z,15.54
2019-05-11T16:39:18.923Z,15.76
2019-05-11T16:42:43.252Z,15.92
2019-05-11T16:45:51.041Z,16.00
2019-05-11T16:48:24.897Z,15.91
2019-05-11T16:50:59.668Z,15.96
2019-05-11T16:56:19.692Z,15.60
2019-05-11T16:59:04.516Z,15.68
2019-05-11T17:01:44.318Z,15.75
2019-05-11T17:04:20.392Z,15.74
2019-05-11T17:07:11.665Z,15.72
2019-05-11T17:12:04.515Z,15.69
2019-05-11T17:17:04.954Z,15.60
2019-05-11T17:22:09.517Z,15.45
2019-05-11T17:27:16.722Z,15.48
2019-05-11T17:32:17.776Z,15.43
2019-05-11T17:37:21.556Z,15.42
2019-05-11T17:42:25.915Z,15.28
2019-05-11T17:47:29.841Z,15.18
2019-05-11T17:50:20.030Z,15.07
2019-05-11T17:52:51.626Z,14.85
2019-05-11T18:00:21.271Z,14.78
2019-05-11T18:05:21.255Z,14.58
2019-05-11T18:07:53.184Z,14.46
2019-05-11T18:12:54.051Z,14.38
2019-05-11T18:20:24.812Z,14.11
2019-05-11T18:27:54.559Z,13.82
2019-05-11T18:30:25.540Z,13.75
2019-05-11T18:32:59.885Z,13.75
2019-05-11T18:35:31.603Z,13.59
2019-05-11T18:38:03.558Z,13.44
2019-05-11T18:40:34.559Z,13.54
2019-05-11T18:43:08.653Z,13.55
2019-05-11T18:45:39.473Z,13.49
2019-05-11T18:48:10.485Z,13.55
2019-05-11T18:50:44.203Z,13.50
2019-05-11T18:55:44.742Z,13.30
2019-05-11T18:58:18.457Z,13.19
2019-05-11T19:00:48.913Z,13.14
2019-05-11T19:05:48.534Z,12.80
2019-05-11T19:08:19.626Z,12.82
2019-05-11T19:18:24.550Z,12.65
2019-05-11T19:20:55.581Z,12.56
2019-05-11T19:23:28.655Z,12.46
2019-05-11T19:25:59.307Z,12.35
2019-05-11T19:28:30.243Z,12.35
2019-05-11T19:31:01.238Z,12.31
2019-05-11T19:33:33.216Z,12.30
2019-05-11T19:36:04.370Z,12.25
2019-05-11T19:41:09.808Z,12.18
2019-05-11T19:46:09.299Z,12.10
2019-05-11T19:49:47.843Z,11.86
2019-05-11T19:54:51.747Z,11.80
2019-05-11T20:02:21.191Z,11.46
2019-05-11T20:05:20.844Z,11.32
2019-05-11T20:08:00.985Z,11.19
2019-05-11T20:10:32.686Z,11.18
2019-05-11T20:13:03.757Z,11.29
2019-05-11T20:15:34.850Z,11.09
2019-05-11T20:20:44.179Z,11.12
2019-05-11T20:23:19.283Z,11.09
2019-05-11T20:25:53.730Z,11.05
2019-05-11T20:28:40.421Z,10.95
2019-05-11T20:31:18.388Z,10.84
2019-05-11T20:33:53.645Z,10.80
2019-05-11T20:39:04.289Z,10.62
2019-05-11T20:41:33.932Z,10.60
2019-05-11T20:49:22.556Z,10.54
2019-05-11T20:54:39.433Z,10.33
2019-05-11T20:59:45.428Z,10.28
2019-05-11T21:04:58.753Z,10.18
2019-05-11T21:07:41.254Z,10.15
2019-05-11T21:10:13.638Z,10.11
2019-05-11T21:13:08.573Z,10.07
2019-05-11T21:15:43.151Z,10.03
2019-05-11T21:18:20.147Z,10.02
2019-05-11T21:23:24.027Z,9.95
2019-05-11T21:25:58.210Z,9.93
2019-05-11T21:30:59.516Z,9.78
2019-05-11T21:33:30.550Z,9.78
2019-05-11T21:36:01.575Z,9.74
2019-05-11T21:38:38.631Z,9.66
2019-05-11T21:46:08.293Z,9.62
2019-05-11T21:48:42.353Z,9.62
2019-05-11T21:51:18.128Z,9.63
2019-05-11T21:53:52.394Z,9.42
2019-05-11T21:56:25.337Z,9.28
2019-05-11T21:58:56.564Z,9.34
2019-05-11T22:01:28.280Z,9.10
2019-05-11T22:03:59.671Z,9.18
2019-05-11T22:06:30.833Z,9.11
2019-05-11T22:11:49.182Z,9.06
2019-05-11T22:14:22.374Z,9.01
2019-05-11T22:19:25.865Z,9.02
2019-05-11T22:21:58.255Z,9.03
2019-05-11T22:24:29.615Z,9.08
2019-05-11T22:27:03.052Z,8.98
2019-05-11T22:29:34.540Z,9.00
2019-05-11T22:32:09.440Z,8.90
2019-05-11T22:37:09.559Z,8.85
2019-05-11T22:39:40.649Z,8.77
2019-05-11T22:42:11.658Z,8.73
2019-05-11T22:44:42.822Z,8.69
2019-05-11T22:47:13.377Z,8.63
2019-05-11T22:49:44.558Z,8.59
2019-05-11T22:52:17.853Z,8.59
2019-05-11T22:54:48.534Z,8.55
2019-05-11T22:57:20.254Z,8.50
2019-05-11T22:59:51.185Z,8.48
2019-05-11T23:02:25.330Z,8.44
2019-05-11T23:04:57.913Z,8.42
2019-05-11T23:07:33.813Z,8.34
2019-05-11T23:12:32.113Z,8.27
2019-05-11T23:15:13.714Z,8.19
2019-05-11T23:17:44.699Z,8.13
2019-05-11T23:22:57.453Z,8.02
2019-05-11T23:25:24.179Z,8.00
2019-05-11T23:27:55.744Z,7.95
2019-05-11T23:30:28.083Z,7.95
2019-05-11T23:35:28.584Z,7.95
2019-05-11T23:37:59.778Z,7.93
2019-05-11T23:40:30.714Z,7.92
2019-05-11T23:43:01.862Z,7.86
2019-05-11T23:45:33.002Z,7.84
2019-05-11T23:48:04.323Z,7.81
2019-05-11T23:50:35.351Z,7.75
2019-05-11T23:53:09.686Z,7.78
2019-05-11T23:55:38.892Z,7.77
2019-05-11T23:58:09.991Z,7.75
